createdAt,value
2023-03-10T00:00:17.657Z,76.95
2023-03-10T00:15:08.966Z,79.50
2023-03-10T00:29:59.506Z,83.27
2023-03-10T00:44:50.367Z,86.75
2023-03-10T00:59:50.109Z,90.18
2023-03-10T01:14:31.160Z,92.36
2023-03-10T01:29:22.178Z,93.76
2023-03-10T01:44:14.912Z,95.79
2023-03-10T01:59:08.524Z,95.51
2023-03-10T02:14:01.366Z,93.55
2023-03-10T13:25:42.865Z,97.71
2023-03-10T13:28:08.838Z,98.05
2023-03-10T13:42:37.062Z,98.83
2023-03-10T13:57:26.828Z,94.95
2023-03-10T14:12:23.090Z,87.20
2023-03-10T14:27:15.351Z,83.31
2023-03-10T14:42:05.941Z,79.26
2023-03-10T14:56:56.626Z,87.49
2023-03-10T15:11:46.734Z,80.47
2023-03-10T15:26:38.782Z,79.34
2023-03-10T15:41:30.608Z,79.95
2023-03-10T15:56:20.727Z,74.58
2023-03-10T16:11:15.267Z,70.07
2023-03-10T16:26:16.280Z,63.63
2023-03-10T16:41:10.757Z,69.99
2023-03-10T16:56:03.494Z,66.68
2023-03-10T17:10:53.664Z,73.71
2023-03-10T17:25:43.419Z,80.18
2023-03-10T17:40:33.417Z,78.23
2023-03-10T17:55:27.197Z,76.15
2023-03-10T18:10:16.872Z,75.05
2023-03-10T18:25:09.935Z,74.46
2023-03-10T18:39:58.990Z,78.64
2023-03-10T18:54:47.554Z,82.33
2023-03-10T19:09:38.538Z,79.81
2023-03-10T19:24:28.629Z,74.43
2023-03-10T19:39:17.194Z,85.55
2023-03-10T19:54:05.714Z,75.88
2023-03-10T20:08:55.361Z,70.10
2023-03-10T20:23:45.967Z,67.68
2023-03-10T20:38:36.611Z,62.72
2023-03-10T20:53:27.660Z,63.65
2023-03-10T21:08:17.673Z,67.76
2023-03-10T21:23:08.211Z,64.03
2023-03-10T21:37:58.919Z,63.68
2023-03-10T21:52:47.683Z,64.73
2023-03-10T22:07:37.651Z,64.11
2023-03-10T22:22:27.532Z,65.67
2023-03-10T22:37:18.485Z,68.28
2023-03-10T22:52:08.600Z,67.27
2023-03-10T23:22:05.044Z,66.25
2023-03-10T23:36:54.492Z,67.21
2023-03-10T23:51:43.593Z,68.64
